createdAt,value
2022-11-06T00:00:57.781Z,3.78
2022-11-06T00:01:57.814Z,3.67
2022-11-06T00:02:57.848Z,3.56
2022-11-06T00:03:57.794Z,3.67
2022-11-06T00:04:57.781Z,3.78
2022-11-06T00:05:57.780Z,3.94
2022-11-06T00:06:57.775Z,3.67
2022-11-06T00:07:57.780Z,3.94
2022-11-06T00:08:57.782Z,3.94
2022-11-06T00:09:57.782Z,3.94
2022-11-06T00:10:57.786Z,3.78
2022-11-06T00:11:57.785Z,3.78
2022-11-06T00:12:57.784Z,3.94
2022-11-06T00:13:57.791Z,3.78
2022-11-06T00:14:57.783Z,3.67
2022-11-06T00:15:57.786Z,3.94
2022-11-06T00:16:57.788Z,3.78
2022-11-06T00:17:57.783Z,3.67
2022-11-06T00:18:57.787Z,3.67
2022-11-06T00:19:57.818Z,3.56
2022-11-06T00:20:57.802Z,3.78
2022-11-06T00:21:57.789Z,3.78
2022-11-06T00:22:57.785Z,3.78
2022-11-06T00:23:57.805Z,3.67
2022-11-06T00:24:57.792Z,3.67
2022-11-06T00:25:57.796Z,3.56
2022-11-06T00:26:57.796Z,3.67
2022-11-06T00:27:57.789Z,3.56
2022-11-06T00:28:57.804Z,3.67
2022-11-06T00:29:57.798Z,3.67
2022-11-06T00:30:57.803Z,3.67
2022-11-06T00:31:57.802Z,3.67
2022-11-06T00:32:57.797Z,3.56
2022-11-06T00:33:57.800Z,3.67
2022-11-06T00:34:57.799Z,3.67
2022-11-06T00:35:57.822Z,3.78
2022-11-06T00:36:57.802Z,3.67
2022-11-06T00:37:57.801Z,3.67
2022-11-06T00:38:57.815Z,3.67
2022-11-06T00:39:57.805Z,3.56
2022-11-06T00:40:57.812Z,3.67
2022-11-06T00:41:57.821Z,3.67
2022-11-06T00:42:57.811Z,3.78
2022-11-06T00:43:57.808Z,3.56
2022-11-06T00:44:57.811Z,3.78
2022-11-06T00:45:57.819Z,3.94
2022-11-06T00:46:57.816Z,4.11
2022-11-06T00:47:57.831Z,3.78
2022-11-06T00:48:57.818Z,3.94
2022-11-06T00:49:57.816Z,3.78
2022-11-06T00:50:57.819Z,3.39
2022-11-06T00:51:57.839Z,3.56
2022-11-06T00:52:57.826Z,3.56
2022-11-06T00:53:57.826Z,3.28
2022-11-06T00:54:57.817Z,3.39
2022-11-06T00:55:57.816Z,3.56
2022-11-06T00:56:57.821Z,3.28
2022-11-06T00:57:57.814Z,3.11
2022-11-06T00:58:57.824Z,3.56
2022-11-06T00:59:57.822Z,3.28
2022-11-06T01:00:57.826Z,3.28
2022-11-06T01:01:57.918Z,3.28
2022-11-06T01:02:57.929Z,3.67
2022-11-06T01:03:57.829Z,3.56
2022-11-06T01:04:57.838Z,3.28
2022-11-06T01:05:57.831Z,3.39
2022-11-06T01:06:57.833Z,3.56
2022-11-06T01:07:57.858Z,3.67
2022-11-06T01:08:57.832Z,3.39
2022-11-06T01:09:57.828Z,3.39
2022-11-06T01:10:57.831Z,3.39
2022-11-06T01:12:14.325Z,3.67
2022-11-06T01:12:57.825Z,3.67
2022-11-06T01:13:57.841Z,3.67
2022-11-06T01:14:57.830Z,3.67
2022-11-06T01:15:57.839Z,3.56
2022-11-06T01:16:57.833Z,3.67
2022-11-06T01:17:57.854Z,3.67
2022-11-06T01:18:57.836Z,3.56
2022-11-06T01:19:57.839Z,3.56
2022-11-06T01:20:57.838Z,3.56
2022-11-06T01:21:57.842Z,3.67
2022-11-06T01:22:57.839Z,3.67
2022-11-06T01:23:57.963Z,3.56
2022-11-06T01:24:57.934Z,3.44
2022-11-06T01:25:57.847Z,3.67
2022-11-06T01:27:24.736Z,3.39
2022-11-06T01:27:57.845Z,3.28
2022-11-06T01:28:57.846Z,3.28
2022-11-06T01:29:57.844Z,3.28
2022-11-06T01:30:57.849Z,3.28
2022-11-06T01:31:57.843Z,3.39
2022-11-06T01:32:57.844Z,3.11
2022-11-06T01:33:57.851Z,3.39
2022-11-06T01:34:57.838Z,3.28
2022-11-06T01:35:57.843Z,3.28
2022-11-06T01:36:57.843Z,3.28
2022-11-06T01:37:57.844Z,3.28
2022-11-06T01:38:57.850Z,3.28
2022-11-06T01:39:57.882Z,3.06
2022-11-06T01:40:57.856Z,3.11
2022-11-06T01:41:57.853Z,3.11
2022-11-06T01:42:57.841Z,3.28
2022-11-06T01:43:57.851Z,3.28
2022-11-06T01:44:57.856Z,3
2022-11-06T01:45:57.854Z,3.28
2022-11-06T01:46:57.851Z,3.28
2022-11-06T01:47:57.851Z,3.28
2022-11-06T01:48:57.860Z,3.28
2022-11-06T01:49:57.845Z,3.28
2022-11-06T01:50:57.850Z,3.28
2022-11-06T01:51:57.853Z,3
2022-11-06T01:52:57.847Z,3
2022-11-06T01:53:57.850Z,3.11
2022-11-06T01:54:57.853Z,3.11
2022-11-06T01:55:57.873Z,3.28
2022-11-06T01:56:57.858Z,3
2022-11-06T01:57:57.849Z,3
2022-11-06T01:58:57.856Z,2.89
2022-11-06T01:59:57.866Z,3.11
2022-11-06T02:00:57.855Z,3.28
2022-11-06T02:01:57.957Z,2.72
2022-11-06T02:02:57.970Z,3
2022-11-06T02:03:57.862Z,3.11
2022-11-06T02:04:57.857Z,2.72
2022-11-06T02:05:57.857Z,2.72
2022-11-06T02:06:57.859Z,3
2022-11-06T02:07:57.865Z,2.83
2022-11-06T02:08:57.859Z,3.11
2022-11-06T02:09:57.867Z,3
2022-11-06T02:10:57.859Z,3.11
2022-11-06T02:11:57.885Z,3.28
2022-11-06T02:12:57.860Z,2.94
2022-11-06T02:13:57.864Z,3
2022-11-06T02:14:57.866Z,3.11
2022-11-06T02:15:57.868Z,2.83
2022-11-06T02:16:57.864Z,3
2022-11-06T02:17:57.872Z,2.83
2022-11-06T02:18:57.870Z,2.83
2022-11-06T02:19:57.878Z,2.39
2022-11-06T02:20:57.874Z,2.83
2022-11-06T02:21:57.870Z,2.61
2022-11-06T02:22:57.880Z,2.17
2022-11-06T02:23:57.880Z,3
2022-11-06T02:24:57.879Z,2.72
2022-11-06T02:25:57.878Z,3.17
2022-11-06T02:26:57.885Z,2.83
2022-11-06T02:27:57.906Z,2.89
2022-11-06T02:28:57.880Z,2.78
2022-11-06T02:29:57.878Z,2.83
2022-11-06T02:30:57.882Z,2.56
2022-11-06T02:31:57.880Z,2.83
2022-11-06T02:32:57.884Z,2.78
2022-11-06T02:33:57.881Z,2.78
2022-11-06T02:34:57.889Z,2.83
2022-11-06T02:35:57.887Z,2.83
2022-11-06T02:36:57.887Z,2.83
2022-11-06T02:37:57.882Z,2.78
2022-11-06T02:38:57.888Z,2.44
2022-11-06T02:39:57.885Z,2.78
2022-11-06T02:40:57.885Z,2.78
2022-11-06T02:41:57.908Z,3
2022-11-06T02:42:57.906Z,2.67
2022-11-06T02:43:58.072Z,2.72
2022-11-06T02:44:57.914Z,3
2022-11-06T02:45:57.906Z,2.89
2022-11-06T02:46:57.885Z,2.61
2022-11-06T02:47:57.877Z,3
2022-11-06T02:48:57.879Z,3
2022-11-06T02:49:57.879Z,2.72
2022-11-06T02:50:57.882Z,3.28
2022-11-06T02:51:57.880Z,3
2022-11-06T02:52:57.882Z,3
2022-11-06T02:53:57.879Z,3
2022-11-06T02:54:57.876Z,3
2022-11-06T02:55:57.881Z,2.89
2022-11-06T02:56:57.880Z,3.17
2022-11-06T02:57:57.879Z,3
2022-11-06T02:58:57.887Z,2.89
2022-11-06T02:59:57.900Z,3.33
2022-11-06T03:00:57.878Z,3.33
2022-11-06T03:01:58.026Z,3.33
2022-11-06T03:02:58.051Z,3.33
2022-11-06T03:03:57.882Z,3.33
2022-11-06T03:04:57.883Z,3.44
2022-11-06T03:05:57.883Z,3.44
2022-11-06T03:06:57.894Z,3.17
2022-11-06T03:07:57.890Z,3.44
2022-11-06T03:08:57.884Z,3.44
2022-11-06T03:09:57.885Z,3.44
2022-11-06T03:10:57.877Z,3.44
2022-11-06T03:11:57.883Z,3.44
2022-11-06T03:12:57.884Z,3.33
2022-11-06T03:13:57.891Z,3.44
2022-11-06T03:14:57.885Z,3.44
2022-11-06T03:15:57.901Z,3.11
2022-11-06T03:16:57.887Z,2.89
2022-11-06T03:17:57.885Z,3
2022-11-06T03:18:57.877Z,2.94
2022-11-06T03:19:57.885Z,2.61
2022-11-06T03:20:57.889Z,2.61
2022-11-06T03:21:57.884Z,2.72
2022-11-06T03:22:57.885Z,2.67
2022-11-06T03:23:57.883Z,2.56
2022-11-06T03:24:57.887Z,2.61
2022-11-06T03:25:57.887Z,2.67
2022-11-06T03:26:57.884Z,2.67
2022-11-06T03:27:57.890Z,2.61
2022-11-06T03:28:57.879Z,2.83
2022-11-06T03:29:57.886Z,2.89
2022-11-06T03:30:57.882Z,2.56
2022-11-06T03:31:57.912Z,2.61
2022-11-06T03:32:57.886Z,2.67
2022-11-06T03:33:57.887Z,2.56
2022-11-06T03:34:57.888Z,2.61
2022-11-06T03:35:57.890Z,2.61
2022-11-06T03:36:57.890Z,2.61
2022-11-06T03:37:57.897Z,2.44
2022-11-06T03:38:57.904Z,2.94
2022-11-06T03:39:57.900Z,2.72
2022-11-06T03:40:57.897Z,2.89
2022-11-06T03:41:57.898Z,2.89
2022-11-06T03:42:57.903Z,3
2022-11-06T03:43:57.902Z,3.11
2022-11-06T03:44:57.897Z,2.72
2022-11-06T03:45:57.902Z,2.94
2022-11-06T03:46:57.905Z,2.94
2022-11-06T03:47:57.934Z,2.72
2022-11-06T03:48:57.902Z,3.11
2022-11-06T03:49:57.902Z,3
2022-11-06T03:50:57.911Z,3.11
2022-11-06T03:51:57.904Z,2.89
2022-11-06T03:52:57.911Z,3.11
2022-11-06T03:53:57.911Z,2.72
2022-11-06T03:54:57.913Z,2.89
2022-11-06T03:55:57.908Z,3
2022-11-06T03:56:57.904Z,2.89
2022-11-06T03:57:57.913Z,3
2022-11-06T03:58:57.966Z,2.72
2022-11-06T03:59:57.915Z,3
2022-11-06T04:00:57.909Z,3.11
2022-11-06T04:01:58.023Z,3
2022-11-06T04:02:57.998Z,3
2022-11-06T04:03:57.933Z,3
2022-11-06T04:04:57.923Z,3.28
2022-11-06T04:05:57.922Z,3.17
2022-11-06T04:06:57.918Z,3.33
2022-11-06T04:07:57.917Z,3.17
2022-11-06T04:08:57.923Z,3.11
2022-11-06T04:09:57.923Z,2.89
2022-11-06T04:10:57.924Z,3
2022-11-06T04:11:57.923Z,3.11
2022-11-06T04:12:57.926Z,3
2022-11-06T04:13:57.917Z,3
2022-11-06T04:14:57.924Z,3
2022-11-06T04:15:57.920Z,3.11
2022-11-06T04:16:57.933Z,3
2022-11-06T04:17:57.925Z,3.28
2022-11-06T04:18:57.929Z,3.11
2022-11-06T04:19:57.948Z,3
2022-11-06T04:20:57.932Z,3.17
2022-11-06T04:21:57.928Z,3
2022-11-06T04:22:57.929Z,3.11
2022-11-06T04:23:57.932Z,3.11
2022-11-06T04:24:57.927Z,3
2022-11-06T04:25:57.931Z,3
2022-11-06T04:26:57.934Z,3
2022-11-06T04:27:57.942Z,3
2022-11-06T04:28:57.944Z,3
2022-11-06T04:29:57.944Z,3
2022-11-06T04:30:57.932Z,3
2022-11-06T04:31:57.938Z,2.94
2022-11-06T04:33:00.202Z,3
2022-11-06T04:33:57.938Z,2.94
2022-11-06T04:34:57.939Z,2.89
2022-11-06T04:35:57.959Z,3
2022-11-06T04:36:57.937Z,3.11
2022-11-06T04:37:57.941Z,3
2022-11-06T04:38:57.966Z,3
2022-11-06T04:39:57.944Z,2.44
2022-11-06T04:40:57.944Z,3.11
2022-11-06T04:41:57.943Z,3.11
2022-11-06T04:42:57.953Z,3.28
2022-11-06T04:43:57.944Z,3.17
2022-11-06T04:44:57.953Z,2.72
2022-11-06T04:45:57.947Z,3
2022-11-06T04:46:57.945Z,3
2022-11-06T04:47:57.943Z,3.11
2022-11-06T04:48:57.946Z,3.11
2022-11-06T04:49:57.951Z,3.11
2022-11-06T04:50:57.948Z,2.61
2022-11-06T04:51:57.975Z,2.67
2022-11-06T04:52:57.944Z,3.17
2022-11-06T04:53:57.961Z,2.94
2022-11-06T04:54:57.950Z,2.89
2022-11-06T04:55:57.953Z,2.72
2022-11-06T04:56:57.960Z,3.06
2022-11-06T04:57:57.959Z,3.17
2022-11-06T04:58:57.967Z,3.28
2022-11-06T04:59:57.967Z,3.17
2022-11-06T05:00:57.977Z,3.06
2022-11-06T05:01:58.019Z,2.89
2022-11-06T05:02:57.955Z,3.17
2022-11-06T05:03:57.968Z,2.94
2022-11-06T05:04:57.962Z,2.94
2022-11-06T05:05:57.962Z,2.83
2022-11-06T05:06:57.963Z,3.11
2022-11-06T05:07:57.995Z,3.06
2022-11-06T05:08:57.965Z,2.89
2022-11-06T05:09:57.967Z,2.94
2022-11-06T05:10:57.968Z,2.72
2022-11-06T05:11:57.973Z,3.17
2022-11-06T05:12:57.973Z,3.06
2022-11-06T05:13:57.971Z,2.89
2022-11-06T05:14:57.974Z,3
2022-11-06T05:15:57.978Z,2.89
2022-11-06T05:16:57.986Z,3
2022-11-06T05:17:57.976Z,3
2022-11-06T05:18:57.976Z,2.67
2022-11-06T05:19:57.967Z,2.72
2022-11-06T05:20:57.971Z,2.72
2022-11-06T05:21:57.966Z,2.28
2022-11-06T05:22:57.976Z,2.83
2022-11-06T05:23:58.000Z,2.72
2022-11-06T05:24:57.974Z,3
2022-11-06T05:25:57.976Z,2.61
2022-11-06T05:26:59.501Z,2.94
2022-11-06T05:27:57.974Z,2.61
2022-11-06T05:28:57.981Z,2.83
2022-11-06T05:29:57.978Z,2.83
2022-11-06T05:30:57.982Z,2.44
2022-11-06T05:31:57.978Z,2.72
2022-11-06T05:32:57.988Z,2.44
2022-11-06T05:33:57.979Z,2.72
2022-11-06T05:34:57.984Z,2.61
2022-11-06T05:35:57.983Z,2.78
2022-11-06T05:36:57.978Z,2.56
2022-11-06T05:37:57.989Z,2.22
2022-11-06T05:38:57.989Z,2.78
2022-11-06T05:39:58.006Z,2.28
2022-11-06T05:40:57.979Z,2.83
2022-11-06T05:41:57.986Z,2.67
2022-11-06T05:42:57.981Z,2.72
2022-11-06T05:43:57.981Z,2.72
2022-11-06T05:44:57.983Z,2.61
2022-11-06T05:45:57.984Z,2.72
2022-11-06T05:46:57.985Z,2.72
2022-11-06T05:47:57.989Z,2.61
2022-11-06T05:48:57.994Z,2.72
2022-11-06T05:49:57.996Z,2.83
2022-11-06T05:50:57.983Z,2.67
2022-11-06T05:51:57.990Z,2.61
2022-11-06T05:52:57.989Z,2.72
2022-11-06T05:53:57.984Z,2.56
2022-11-06T05:54:57.992Z,3
2022-11-06T05:55:58.055Z,2.72
2022-11-06T05:56:57.985Z,2.94
2022-11-06T05:57:57.988Z,3
2022-11-06T05:58:57.998Z,3
2022-11-06T05:59:57.993Z,2.44
2022-11-06T06:00:57.991Z,2.89
2022-11-06T06:01:58.107Z,2.89
2022-11-06T06:02:58.015Z,2.72
2022-11-06T06:03:57.993Z,2.67
2022-11-06T06:04:57.978Z,2.28
2022-11-06T06:05:57.986Z,2.61
2022-11-06T06:06:57.987Z,2.67
2022-11-06T06:07:57.991Z,2.61
2022-11-06T06:08:57.989Z,2.61
2022-11-06T06:09:57.992Z,2.72
2022-11-06T06:10:57.986Z,2.89
2022-11-06T06:11:58.016Z,2.44
2022-11-06T06:12:57.999Z,2.89
2022-11-06T06:13:57.993Z,2.89
2022-11-06T06:14:57.987Z,2.89
2022-11-06T06:15:57.997Z,2.94
2022-11-06T06:16:58.009Z,2.67
2022-11-06T06:17:58.023Z,2.89
2022-11-06T06:18:57.988Z,2.72
2022-11-06T06:19:57.986Z,2.61
2022-11-06T06:20:57.992Z,2.44
2022-11-06T06:21:57.998Z,2.89
2022-11-06T06:22:57.994Z,3.11
2022-11-06T06:23:57.985Z,2.72
2022-11-06T06:24:58.232Z,3.11
2022-11-06T06:25:57.996Z,3.11
2022-11-06T06:26:57.989Z,3
2022-11-06T06:27:58.009Z,2.72
2022-11-06T06:28:57.988Z,2.72
2022-11-06T06:29:57.996Z,2.89
2022-11-06T06:31:01.442Z,3
2022-11-06T06:31:57.988Z,2.83
2022-11-06T06:32:57.988Z,2.72
2022-11-06T06:33:57.995Z,2.72
2022-11-06T06:34:57.996Z,2.94
2022-11-06T06:35:57.990Z,3.06
2022-11-06T06:36:57.999Z,2.89
2022-11-06T06:37:57.992Z,3.17
2022-11-06T06:38:57.999Z,3.11
2022-11-06T06:39:58.008Z,2.72
2022-11-06T06:40:58.000Z,2.89
2022-11-06T06:41:58.003Z,3.11
2022-11-06T06:42:58.006Z,3.11
2022-11-06T06:43:58.118Z,2.89
2022-11-06T06:44:58.008Z,2.72
2022-11-06T06:45:58.007Z,2.72
2022-11-06T06:46:58.008Z,3
2022-11-06T06:47:58.005Z,3
2022-11-06T06:48:58.004Z,2.72
2022-11-06T06:49:58.010Z,2.44
2022-11-06T06:50:58.012Z,3
2022-11-06T06:51:58.008Z,3.28
2022-11-06T06:52:58.023Z,3.11
2022-11-06T06:53:58.005Z,2.72
2022-11-06T06:54:58.014Z,3.17
2022-11-06T06:55:58.019Z,3.17
2022-11-06T06:56:58.022Z,3.39
2022-11-06T06:57:58.019Z,3.44
2022-11-06T06:58:58.014Z,3.44
2022-11-06T06:59:58.051Z,3.44
2022-11-06T07:00:58.089Z,3.33
2022-11-06T07:01:58.069Z,3.17
2022-11-06T07:02:58.032Z,3.39
2022-11-06T07:04:02.908Z,3.33
2022-11-06T07:04:58.029Z,3.33
2022-11-06T07:05:58.027Z,3.56
2022-11-06T07:06:58.031Z,3.28
2022-11-06T07:07:58.064Z,3.33
2022-11-06T07:08:58.035Z,2.89
2022-11-06T07:09:58.026Z,3.44
2022-11-06T07:10:58.030Z,3.44
2022-11-06T07:11:58.031Z,3.39
2022-11-06T07:12:58.035Z,3.56
2022-11-06T07:13:58.036Z,3.44
2022-11-06T07:14:58.030Z,3.56
2022-11-06T07:15:58.057Z,3.44
2022-11-06T07:16:58.050Z,3.44
2022-11-06T07:17:58.041Z,3.33
2022-11-06T07:18:58.042Z,3.44
2022-11-06T07:19:58.052Z,3.83
2022-11-06T07:20:58.048Z,3.44
2022-11-06T07:21:58.061Z,3.72
2022-11-06T07:22:58.056Z,3.44
2022-11-06T07:23:58.058Z,3.61
2022-11-06T07:24:58.071Z,3.56
2022-11-06T07:25:58.055Z,3.83
2022-11-06T07:26:58.056Z,3.83
2022-11-06T07:28:02.503Z,4
2022-11-06T07:28:58.070Z,4.17
2022-11-06T07:29:58.065Z,4
2022-11-06T07:30:58.069Z,4.28
2022-11-06T07:31:58.091Z,4.28
2022-11-06T07:32:58.063Z,4.28
2022-11-06T07:33:58.073Z,4.28
2022-11-06T07:34:58.081Z,4.17
2022-11-06T07:35:58.069Z,4.28
2022-11-06T07:36:58.079Z,4.28
2022-11-06T07:37:58.083Z,4.44
2022-11-06T07:38:58.079Z,4.44
2022-11-06T07:39:58.090Z,4.44
2022-11-06T07:40:58.079Z,4.44
2022-11-06T07:41:58.098Z,4.78
2022-11-06T07:42:58.099Z,4.28
2022-11-06T07:43:58.087Z,4.72
2022-11-06T07:44:58.093Z,4.44
2022-11-06T07:45:58.093Z,4.44
2022-11-06T07:46:58.096Z,4.56
2022-11-06T07:47:59.267Z,4.17
2022-11-06T07:48:58.096Z,4.56
2022-11-06T07:49:58.101Z,4.56
2022-11-06T07:50:58.165Z,4.28
2022-11-06T07:51:58.102Z,4.17
2022-11-06T07:52:58.105Z,4.28
2022-11-06T07:53:58.107Z,4.44
2022-11-06T07:54:58.111Z,4.44
2022-11-06T07:55:58.101Z,4.56
2022-11-06T07:56:58.100Z,5.17
2022-11-06T07:57:58.111Z,5.17
2022-11-06T07:58:58.099Z,4.72
2022-11-06T07:59:58.107Z,4.5
2022-11-06T08:00:58.358Z,4.56
2022-11-06T08:01:58.212Z,4.72
2022-11-06T08:02:58.114Z,4.28
2022-11-06T08:03:58.131Z,4.44
2022-11-06T08:04:58.118Z,4.44
2022-11-06T08:05:58.113Z,4.72
2022-11-06T08:06:58.121Z,4.67
2022-11-06T08:07:58.127Z,4.72
2022-11-06T08:08:59.159Z,4.72
2022-11-06T08:09:58.130Z,4.78
2022-11-06T08:10:58.128Z,4.72
2022-11-06T08:11:58.117Z,5.06
2022-11-06T08:12:58.130Z,5.17
2022-11-06T08:13:58.127Z,5.44
2022-11-06T08:14:58.131Z,5.72
2022-11-06T08:15:58.151Z,5.83
2022-11-06T08:16:58.131Z,5.61
2022-11-06T08:17:58.137Z,5.39
2022-11-06T08:18:58.142Z,5.39
2022-11-06T08:19:58.156Z,5.44
2022-11-06T08:20:58.136Z,5.44
2022-11-06T08:21:58.142Z,5.44
2022-11-06T08:22:58.148Z,5
2022-11-06T08:23:58.145Z,4.78
2022-11-06T08:24:58.146Z,5
2022-11-06T08:25:58.154Z,5.17
2022-11-06T08:26:58.141Z,5
2022-11-06T08:27:58.151Z,5
2022-11-06T08:28:58.158Z,5.33
2022-11-06T08:29:58.154Z,5
2022-11-06T08:30:58.146Z,5.22
2022-11-06T08:31:58.158Z,5.33
2022-11-06T08:32:58.149Z,5.22
2022-11-06T08:33:58.160Z,5.33
2022-11-06T08:34:58.156Z,5.17
2022-11-06T08:35:58.178Z,5.33
2022-11-06T08:36:58.156Z,5.39
2022-11-06T08:37:58.153Z,5.44
2022-11-06T08:38:58.160Z,5.83
2022-11-06T08:39:58.165Z,5.39
2022-11-06T08:40:58.168Z,5.83
2022-11-06T08:41:58.197Z,5.72
2022-11-06T08:42:58.166Z,6
2022-11-06T08:43:58.172Z,6.22
2022-11-06T08:44:58.170Z,6.22
2022-11-06T08:45:58.171Z,5.78
2022-11-06T08:46:58.165Z,6.39
2022-11-06T08:47:58.176Z,6.06
2022-11-06T08:48:58.179Z,5.78
2022-11-06T08:49:58.182Z,5.78
2022-11-06T08:50:58.167Z,6.06
2022-11-06T08:51:58.196Z,6.39
2022-11-06T08:52:58.181Z,5.94
2022-11-06T08:53:58.249Z,5.67
2022-11-06T08:54:58.173Z,5.78
2022-11-06T08:55:58.182Z,5.78
2022-11-06T08:56:58.181Z,6.39
2022-11-06T08:57:58.174Z,6.39
2022-11-06T08:58:58.184Z,6.67
2022-11-06T08:59:58.177Z,6.39
2022-11-06T09:00:58.193Z,6.94
2022-11-06T09:01:58.338Z,6.78
2022-11-06T09:02:58.186Z,6.67
2022-11-06T09:03:58.187Z,6.5
2022-11-06T09:04:58.185Z,6.78
2022-11-06T09:05:58.186Z,6.78
2022-11-06T09:06:58.189Z,7.11
2022-11-06T09:07:58.211Z,6.94
2022-11-06T09:08:58.196Z,6.94
2022-11-06T09:09:58.194Z,6.67
2022-11-06T09:10:58.943Z,6.67
2022-11-06T09:11:58.200Z,6.67
2022-11-06T09:12:58.190Z,6.67
2022-11-06T09:13:58.196Z,7.11
2022-11-06T09:14:58.197Z,6.94
2022-11-06T09:15:58.202Z,6.94
2022-11-06T09:16:58.202Z,7.39
2022-11-06T09:17:58.205Z,7.39
2022-11-06T09:18:58.200Z,7.22
2022-11-06T09:19:58.200Z,7.5
2022-11-06T09:20:58.206Z,7.5
2022-11-06T09:21:58.201Z,7.39
2022-11-06T09:22:58.203Z,7.22
2022-11-06T09:23:58.219Z,6.5
2022-11-06T09:25:03.470Z,6.39
2022-11-06T09:25:58.213Z,6.67
2022-11-06T09:26:58.208Z,7.22
2022-11-06T09:27:59.571Z,6.94
2022-11-06T09:28:58.203Z,6.94
2022-11-06T09:29:58.212Z,7.39
2022-11-06T09:30:58.212Z,7.11
2022-11-06T09:31:58.213Z,6.94
2022-11-06T09:32:58.225Z,7.39
2022-11-06T09:33:58.208Z,6.94
2022-11-06T09:34:58.220Z,7.11
2022-11-06T09:35:58.216Z,7.11
2022-11-06T09:36:58.217Z,7.11
2022-11-06T09:37:58.220Z,6.94
2022-11-06T09:38:58.228Z,7.67
2022-11-06T09:40:01.844Z,7.94
2022-11-06T09:40:58.248Z,8.11
2022-11-06T09:41:58.223Z,7.94
2022-11-06T09:42:58.226Z,7.11
2022-11-06T09:44:04.971Z,7.5
2022-11-06T09:44:58.225Z,7.5
2022-11-06T09:45:58.232Z,7.5
2022-11-06T09:46:58.236Z,7.67
2022-11-06T09:47:58.227Z,8.28
2022-11-06T09:48:58.236Z,8.39
2022-11-06T09:49:58.245Z,8.78
2022-11-06T09:50:58.237Z,8.78
2022-11-06T09:51:58.246Z,8.39
2022-11-06T09:53:01.680Z,8.78
2022-11-06T09:53:58.243Z,8.94
2022-11-06T09:54:58.239Z,8.94
2022-11-06T09:55:58.271Z,9.06
2022-11-06T09:56:58.259Z,9.22
2022-11-06T09:57:58.246Z,9.5
2022-11-06T09:58:58.242Z,9.94
2022-11-06T09:59:58.257Z,9.78
2022-11-06T10:00:58.325Z,9.94
2022-11-06T10:01:58.396Z,9.5
2022-11-06T10:02:58.345Z,9.5
2022-11-06T10:03:58.272Z,9.67
2022-11-06T10:04:58.263Z,9.94
2022-11-06T10:05:58.255Z,10.11
2022-11-06T10:06:58.256Z,9.22
2022-11-06T10:07:58.265Z,9.06
2022-11-06T10:08:58.261Z,9.22
2022-11-06T10:09:58.267Z,8.61
2022-11-06T10:10:58.271Z,8.61
2022-11-06T10:11:58.294Z,9.22
2022-11-06T10:12:58.266Z,8.94
2022-11-06T10:13:58.267Z,8.94
2022-11-06T10:14:58.267Z,9.06
2022-11-06T10:15:58.266Z,8.94
2022-11-06T10:16:58.278Z,9.67
2022-11-06T10:17:58.277Z,8.94
2022-11-06T10:18:58.338Z,8.94
2022-11-06T10:19:58.270Z,9.39
2022-11-06T10:20:58.272Z,9.67
2022-11-06T10:21:58.270Z,9.67
2022-11-06T10:22:58.273Z,9.22
2022-11-06T10:23:58.282Z,9.67
2022-11-06T10:24:58.277Z,9.22
2022-11-06T10:25:58.277Z,9.67
2022-11-06T10:26:58.297Z,9.5
2022-11-06T10:27:58.399Z,9.39
2022-11-06T10:28:58.278Z,9.06
2022-11-06T10:29:58.288Z,8.94
2022-11-06T10:30:58.285Z,8.78
2022-11-06T10:31:58.282Z,8.78
2022-11-06T10:32:58.287Z,8.61
2022-11-06T10:33:58.285Z,8.78
2022-11-06T10:34:58.283Z,8.78
2022-11-06T10:35:58.286Z,8.78
2022-11-06T10:36:58.292Z,9.22
2022-11-06T10:37:58.288Z,9.22
2022-11-06T10:38:58.299Z,9.5
2022-11-06T10:39:58.296Z,9.67
2022-11-06T10:40:58.292Z,9.06
2022-11-06T10:41:58.297Z,9.67
2022-11-06T10:42:58.291Z,9.5
2022-11-06T10:43:58.312Z,9.39
2022-11-06T10:44:58.303Z,9.67
2022-11-06T10:45:58.307Z,9.5
2022-11-06T10:46:58.302Z,9.67
2022-11-06T10:47:58.303Z,9.5
2022-11-06T10:48:58.299Z,8.78
2022-11-06T10:49:58.304Z,9.06
2022-11-06T10:50:58.300Z,9.39
2022-11-06T10:51:58.306Z,9.5
2022-11-06T10:52:58.307Z,9.67
2022-11-06T10:53:58.299Z,9.22
2022-11-06T10:54:58.306Z,9.22
2022-11-06T10:55:58.295Z,9.22
2022-11-06T10:56:58.301Z,8.94
2022-11-06T10:57:58.307Z,8.78
2022-11-06T10:58:58.311Z,8.39
2022-11-06T10:59:58.326Z,8.78
2022-11-06T11:00:58.356Z,8.94
2022-11-06T11:01:58.446Z,9.5
2022-11-06T11:02:58.302Z,9.39
2022-11-06T11:03:58.299Z,9.39
2022-11-06T11:04:58.673Z,9.22
2022-11-06T11:05:58.298Z,9.5
2022-11-06T11:06:58.306Z,9.22
2022-11-06T11:07:58.308Z,9.5
2022-11-06T11:08:58.308Z,9.78
2022-11-06T11:09:58.314Z,9.78
2022-11-06T11:11:04.721Z,10.11
2022-11-06T11:11:58.315Z,10.11
2022-11-06T11:12:58.311Z,10.11
2022-11-06T11:13:58.330Z,9.94
2022-11-06T11:14:58.319Z,10.11
2022-11-06T11:15:58.342Z,10.56
2022-11-06T11:16:58.319Z,9.78
2022-11-06T11:17:58.335Z,9.94
2022-11-06T11:18:58.316Z,9.67
2022-11-06T11:19:58.317Z,9.67
2022-11-06T11:20:58.320Z,9.67
2022-11-06T11:21:58.317Z,8.94
2022-11-06T11:22:58.360Z,9.06
2022-11-06T11:23:58.317Z,9.06
2022-11-06T11:24:58.316Z,9.22
2022-11-06T11:25:58.316Z,9.67
2022-11-06T11:26:58.320Z,9.67
2022-11-06T11:28:02.215Z,9.5
2022-11-06T11:28:58.320Z,8.94
2022-11-06T11:29:58.328Z,9.06
2022-11-06T11:30:58.316Z,9.22
2022-11-06T11:31:58.421Z,9.22
2022-11-06T11:32:58.326Z,9.67
2022-11-06T11:33:58.317Z,10.11
2022-11-06T11:34:58.321Z,9.94
2022-11-06T11:35:58.314Z,10.22
2022-11-06T11:36:58.324Z,10.11
2022-11-06T11:37:58.316Z,10.56
2022-11-06T11:38:58.322Z,11
2022-11-06T11:39:58.321Z,10.22
2022-11-06T11:40:58.327Z,9.22
2022-11-06T11:41:58.320Z,9.22
2022-11-06T11:42:58.321Z,9.06
2022-11-06T11:43:58.326Z,9.67
2022-11-06T11:44:58.320Z,9.5
2022-11-06T11:45:58.321Z,9.94
2022-11-06T11:46:58.325Z,9.67
2022-11-06T11:47:58.348Z,9.78
2022-11-06T11:48:58.358Z,9.67
2022-11-06T11:49:58.330Z,9.94
2022-11-06T11:50:58.333Z,10.39
2022-11-06T11:51:58.327Z,10.11
2022-11-06T11:52:58.338Z,10.22
2022-11-06T11:53:58.339Z,9.94
2022-11-06T11:54:58.338Z,9.94
2022-11-06T11:55:58.335Z,9.67
2022-11-06T11:57:04.477Z,9.5
2022-11-06T11:57:58.342Z,9.22
2022-11-06T11:58:58.347Z,9.17
2022-11-06T11:59:58.348Z,9.28
2022-11-06T12:00:58.345Z,9.06
2022-11-06T12:01:58.418Z,9.22
2022-11-06T12:02:58.419Z,8.94
2022-11-06T12:03:58.453Z,9.33
2022-11-06T12:04:58.348Z,9.06
2022-11-06T12:05:58.347Z,9.22
2022-11-06T12:06:58.357Z,9.5
2022-11-06T12:07:58.363Z,9.33
2022-11-06T12:08:58.358Z,9.44
2022-11-06T12:09:58.358Z,9.44
2022-11-06T12:10:58.358Z,9.06
2022-11-06T12:11:58.358Z,8.83
2022-11-06T12:12:58.363Z,9.56
2022-11-06T12:13:58.360Z,9.44
2022-11-06T12:14:58.356Z,9.28
2022-11-06T12:15:58.370Z,9.28
2022-11-06T12:16:58.361Z,9.44
2022-11-06T12:17:58.364Z,9.89
2022-11-06T12:18:59.137Z,9.89
2022-11-06T12:19:58.382Z,9.72
2022-11-06T12:20:58.366Z,9.72
2022-11-06T12:21:58.365Z,9
2022-11-06T12:22:58.363Z,9
2022-11-06T12:23:58.371Z,9
2022-11-06T12:24:58.373Z,9.17
2022-11-06T12:25:58.378Z,9
2022-11-06T12:26:58.374Z,9.17
2022-11-06T12:27:58.376Z,9
2022-11-06T12:29:03.817Z,8.83
2022-11-06T12:29:58.382Z,9.17
2022-11-06T12:30:58.387Z,9
2022-11-06T12:31:58.382Z,8.83
2022-11-06T12:32:58.384Z,9
2022-11-06T12:34:07.007Z,9
2022-11-06T12:34:58.387Z,9.17
2022-11-06T12:35:58.406Z,9
2022-11-06T12:36:58.395Z,9.28
2022-11-06T12:37:58.390Z,8.67
2022-11-06T12:38:58.395Z,9.28
2022-11-06T12:39:58.398Z,9.44
2022-11-06T12:40:58.396Z,9
2022-11-06T12:41:58.388Z,8.67
2022-11-06T12:42:58.404Z,9
2022-11-06T12:43:58.408Z,9
2022-11-06T12:44:58.394Z,9
2022-11-06T12:45:58.405Z,9
2022-11-06T12:46:58.401Z,9
2022-11-06T12:47:58.413Z,8.67
2022-11-06T12:48:58.399Z,9
2022-11-06T12:49:58.400Z,8.83
2022-11-06T12:50:58.408Z,9.17
2022-11-06T12:51:58.434Z,9.28
2022-11-06T12:53:02.110Z,9
2022-11-06T12:53:58.407Z,9.17
2022-11-06T12:54:58.422Z,9.28
2022-11-06T12:55:58.414Z,9.44
2022-11-06T12:56:58.420Z,9.44
2022-11-06T12:57:58.415Z,9.28
2022-11-06T12:58:58.415Z,9.56
2022-11-06T12:59:58.424Z,10
2022-11-06T13:00:58.479Z,9.56
2022-11-06T13:01:58.502Z,9.28
2022-11-06T13:02:58.433Z,9.56
2022-11-06T13:03:58.425Z,9.72
2022-11-06T13:04:58.417Z,9.56
2022-11-06T13:05:58.426Z,10.33
2022-11-06T13:06:58.415Z,10.17
2022-11-06T13:07:58.442Z,9.56
2022-11-06T13:08:58.426Z,9.72
2022-11-06T13:09:58.416Z,9.72
2022-11-06T13:10:58.424Z,9.89
2022-11-06T13:11:58.427Z,9.72
2022-11-06T13:12:58.431Z,9.72
2022-11-06T13:13:58.425Z,9.89
2022-11-06T13:14:58.426Z,9.44
2022-11-06T13:15:58.421Z,9.28
2022-11-06T13:16:58.424Z,9.44
2022-11-06T13:17:58.435Z,9.17
2022-11-06T13:18:58.435Z,9.17
2022-11-06T13:19:58.418Z,9.72
2022-11-06T13:20:58.428Z,9.56
2022-11-06T13:21:58.430Z,9.56
2022-11-06T13:22:58.428Z,9.44
2022-11-06T13:23:58.448Z,9.44
2022-11-06T13:24:58.429Z,9.44
2022-11-06T13:25:58.435Z,9.56
2022-11-06T13:26:58.452Z,9.44
2022-11-06T13:27:58.424Z,9.28